createdAt,value
2017-08-02T00:01:45.721Z,86.60
2017-08-02T00:04:14.631Z,86.60
2017-08-02T00:06:43.472Z,86.30
2017-08-02T00:09:14.711Z,85.10
2017-08-02T00:11:43.760Z,85.10
2017-08-02T00:14:12.164Z,84.90
2017-08-02T00:16:41.915Z,84.80
2017-08-02T00:19:10.178Z,84.90
2017-08-02T00:21:38.435Z,84.60
2017-08-02T00:24:06.671Z,84.90
2017-08-02T00:26:34.948Z,83.60
2017-08-02T00:29:03.198Z,84.30
2017-08-02T00:31:32.419Z,84.40
2017-08-02T00:34:01.033Z,84.90
2017-08-02T00:36:29.261Z,84.90
2017-08-02T00:38:57.549Z,85.10
2017-08-02T00:41:25.815Z,85.20
2017-08-02T00:43:54.106Z,85.60
2017-08-02T00:46:23.563Z,86.10
2017-08-02T00:48:52.628Z,86.40
2017-08-02T00:51:21.418Z,86.90
2017-08-02T00:53:51.369Z,86.60
2017-08-02T00:56:20.938Z,86.70
2017-08-02T00:58:50.660Z,86.30
2017-08-02T01:01:19.737Z,85.20
2017-08-02T01:03:47.987Z,85.20
2017-08-02T01:06:16.694Z,84.70
2017-08-02T01:08:44.972Z,84.60
2017-08-02T01:11:14.625Z,84.30
2017-08-02T01:13:45.042Z,85.20
2017-08-02T01:16:13.342Z,85.20
2017-08-02T01:18:43.429Z,85.10
2017-08-02T01:21:11.703Z,85.40
2017-08-02T01:23:39.938Z,85.70
2017-08-02T01:26:09.273Z,85.50
2017-08-02T01:28:38.145Z,84.90
2017-08-02T01:31:07.787Z,84.80
2017-08-02T01:33:36.243Z,84.90
2017-08-02T01:36:05.412Z,85.10
2017-08-02T01:38:33.682Z,85.80
2017-08-02T01:41:02.748Z,86.70
2017-08-02T01:43:30.971Z,86.10
2017-08-02T01:45:59.253Z,86.10
2017-08-02T01:48:27.562Z,86.70
2017-08-02T01:50:55.845Z,85.90
2017-08-02T01:53:24.115Z,85.60
2017-08-02T01:55:52.393Z,85.40
2017-08-02T01:58:20.651Z,85.70
2017-08-02T02:00:48.923Z,85.90
2017-08-02T02:03:17.203Z,85.00
2017-08-02T02:05:45.469Z,85.00
2017-08-02T02:08:13.714Z,85.10
2017-08-02T02:10:42.002Z,84.70
2017-08-02T02:13:11.016Z,84.60
2017-08-02T02:15:39.307Z,84.60
2017-08-02T02:18:09.876Z,84.40
2017-08-02T02:20:42.360Z,84.20
2017-08-02T02:23:11.524Z,83.30
2017-08-02T02:25:39.739Z,83.40
2017-08-02T02:28:09.470Z,83.80
2017-08-02T02:30:38.532Z,83.80
2017-08-02T02:33:06.794Z,83.70
2017-08-02T02:35:35.072Z,83.60
2017-08-02T02:38:04.247Z,83.90
2017-08-02T02:40:33.954Z,83.40
2017-08-02T02:43:02.247Z,84.00
2017-08-02T02:45:30.521Z,84.70
2017-08-02T02:47:58.757Z,84.90
2017-08-02T02:50:27.779Z,85.20
2017-08-02T02:52:56.059Z,85.00
2017-08-02T02:55:24.321Z,84.90
2017-08-02T02:57:52.586Z,85.60
2017-08-02T03:00:21.588Z,85.10
2017-08-02T03:02:49.856Z,85.10
2017-08-02T03:05:18.903Z,84.90
2017-08-02T03:07:47.155Z,84.90
2017-08-02T03:10:15.420Z,84.50
2017-08-02T03:12:43.677Z,84.70
2017-08-02T03:15:12.730Z,84.40
2017-08-02T03:17:41.421Z,84.50
2017-08-02T03:20:09.658Z,84.30
2017-08-02T03:22:37.928Z,84.60
2017-08-02T03:25:06.200Z,84.50
2017-08-02T03:27:34.512Z,84.30
2017-08-02T03:30:02.758Z,84.20
2017-08-02T03:32:31.018Z,84.70
2017-08-02T03:35:00.080Z,84.20
2017-08-02T03:37:28.350Z,84.20
2017-08-02T03:39:56.605Z,84.30
2017-08-02T03:42:24.841Z,84.30
2017-08-02T03:44:53.119Z,83.90
2017-08-02T03:47:22.169Z,84.20
2017-08-02T03:49:50.430Z,84.20
2017-08-02T03:52:18.696Z,84.30
2017-08-02T03:54:46.965Z,84.60
2017-08-02T03:57:15.227Z,84.50
2017-08-02T03:59:44.241Z,84.50
2017-08-02T04:02:13.365Z,85.00
2017-08-02T04:04:41.630Z,84.40
2017-08-02T04:07:09.907Z,84.50
2017-08-02T04:09:38.179Z,84.50
2017-08-02T04:12:06.426Z,84.70
2017-08-02T04:14:35.464Z,84.80
2017-08-02T04:17:03.725Z,84.80
2017-08-02T04:19:35.048Z,84.90
2017-08-02T04:22:04.274Z,84.80
2017-08-02T04:24:33.451Z,84.60
2017-08-02T04:27:02.475Z,84.80
2017-08-02T04:29:31.567Z,84.80
2017-08-02T04:31:59.819Z,84.70
2017-08-02T04:34:28.827Z,84.60
2017-08-02T04:36:57.116Z,84.60
2017-08-02T04:39:25.376Z,84.60
2017-08-02T04:41:54.395Z,83.90
2017-08-02T04:44:22.653Z,83.90
2017-08-02T04:46:50.938Z,83.90
2017-08-02T04:49:19.194Z,84.10
2017-08-02T04:51:48.186Z,83.60
2017-08-02T04:54:17.260Z,83.00
2017-08-02T04:56:45.477Z,83.00
2017-08-02T04:59:13.782Z,82.60
2017-08-02T05:01:42.006Z,82.20
2017-08-02T05:04:11.065Z,82.00
2017-08-02T05:06:39.362Z,81.40
2017-08-02T05:09:07.626Z,81.40
2017-08-02T05:11:35.982Z,81.40
2017-08-02T05:14:04.225Z,81.20
2017-08-02T05:16:33.395Z,81.10
2017-08-02T05:19:03.048Z,81.70
2017-08-02T05:21:32.682Z,81.80
2017-08-02T05:24:00.940Z,81.80
2017-08-02T05:26:29.200Z,82.30
2017-08-02T05:28:57.485Z,81.70
2017-08-02T05:31:25.727Z,81.60
2017-08-02T05:33:54.051Z,81.20
2017-08-02T05:36:22.288Z,81.00
2017-08-02T05:38:51.343Z,80.30
2017-08-02T05:41:19.627Z,80.30
2017-08-02T05:43:47.863Z,79.30
2017-08-02T05:46:16.135Z,79.00
2017-08-02T05:48:46.367Z,78.50
2017-08-02T05:51:14.634Z,78.50
2017-08-02T05:53:42.960Z,77.90
2017-08-02T05:56:11.189Z,78.00
2017-08-02T05:58:41.835Z,78.50
2017-08-02T06:01:10.115Z,78.70
2017-08-02T06:03:38.362Z,78.10
2017-08-02T06:06:07.395Z,79.20
2017-08-02T06:08:35.676Z,79.10
2017-08-02T06:11:04.647Z,79.00
2017-08-02T06:13:32.913Z,78.60
2017-08-02T06:16:02.119Z,78.40
2017-08-02T06:18:30.394Z,77.60
2017-08-02T06:20:58.665Z,77.80
2017-08-02T06:23:26.910Z,77.40
2017-08-02T06:25:56.103Z,76.50
2017-08-02T06:28:24.397Z,76.10
2017-08-02T06:30:52.694Z,76.90
2017-08-02T06:33:20.915Z,76.90
2017-08-02T06:35:49.171Z,75.50
2017-08-02T06:38:17.441Z,76.30
2017-08-02T06:40:45.712Z,76.90
2017-08-02T06:43:14.746Z,75.60
2017-08-02T06:45:43.040Z,75.50
2017-08-02T06:48:11.314Z,75.10
2017-08-02T06:50:39.562Z,74.70
2017-08-02T06:53:07.814Z,74.00
2017-08-02T06:55:36.065Z,74.70
2017-08-02T06:58:05.095Z,74.40
2017-08-02T07:00:33.598Z,74.40
2017-08-02T07:03:01.833Z,73.20
2017-08-02T07:05:30.127Z,74.20
2017-08-02T07:07:59.118Z,72.30
2017-08-02T07:10:28.117Z,72.30
2017-08-02T07:12:57.805Z,71.80
2017-08-02T07:15:26.886Z,71.80
2017-08-02T07:17:55.120Z,71.80
2017-08-02T07:20:23.487Z,72.00
2017-08-02T07:22:52.529Z,71.20
2017-08-02T07:25:22.117Z,71.50
2017-08-02T07:27:51.199Z,71.00
2017-08-02T07:30:20.293Z,70.50
2017-08-02T07:32:49.394Z,69.70
2017-08-02T07:35:19.318Z,68.70
2017-08-02T07:37:47.554Z,68.50
2017-08-02T07:40:16.604Z,66.40
2017-08-02T07:42:44.954Z,66.40
2017-08-02T07:45:14.034Z,67.00
2017-08-02T07:47:42.639Z,66.00
2017-08-02T07:50:11.681Z,65.70
2017-08-02T07:52:39.951Z,64.90
2017-08-02T07:55:08.222Z,64.20
2017-08-02T07:57:37.406Z,62.90
2017-08-02T08:00:05.763Z,64.70
2017-08-02T08:02:34.750Z,62.00
2017-08-02T08:05:02.990Z,62.60
2017-08-02T08:07:31.990Z,59.10
2017-08-02T08:10:01.438Z,59.20
2017-08-02T08:12:29.670Z,59.20
2017-08-02T08:14:58.685Z,59.10
2017-08-02T08:17:26.947Z,58.90
2017-08-02T08:19:55.962Z,58.70
2017-08-02T08:22:24.211Z,58.20
2017-08-02T08:24:52.475Z,57.70
2017-08-02T08:27:20.782Z,57.00
2017-08-02T08:29:49.116Z,57.10
2017-08-02T08:32:17.427Z,57.70
2017-08-02T08:34:45.693Z,58.30
2017-08-02T08:37:13.951Z,57.60
2017-08-02T08:39:42.212Z,57.50
2017-08-02T08:42:10.485Z,57.10
2017-08-02T08:44:38.757Z,57.10
2017-08-02T08:47:07.795Z,56.10
2017-08-02T08:49:36.846Z,57.00
2017-08-02T08:52:05.085Z,57.00
2017-08-02T08:54:34.110Z,57.20
2017-08-02T08:57:02.801Z,57.20
2017-08-02T08:59:31.025Z,57.10
2017-08-02T09:01:59.279Z,57.30
2017-08-02T09:04:27.568Z,56.40
2017-08-02T09:06:55.839Z,56.00
2017-08-02T09:09:25.690Z,57.10
2017-08-02T09:11:55.761Z,58.70
2017-08-02T09:14:23.997Z,58.00
2017-08-02T09:16:52.403Z,58.00
2017-08-02T09:19:21.560Z,57.60
2017-08-02T09:21:50.615Z,57.30
2017-08-02T09:24:19.253Z,57.20
2017-08-02T09:26:47.519Z,57.20
2017-08-02T09:29:16.530Z,58.20
2017-08-02T09:31:46.795Z,58.20
2017-08-02T09:34:18.587Z,57.80
2017-08-02T09:36:49.367Z,56.90
2017-08-02T09:39:19.287Z,56.90
2017-08-02T09:41:47.550Z,55.80
2017-08-02T09:44:15.818Z,52.80
2017-08-02T09:46:44.654Z,54.00
2017-08-02T09:49:13.265Z,52.90
2017-08-02T09:51:44.370Z,51.60
2017-08-02T09:54:16.008Z,51.60
2017-08-02T09:56:45.107Z,52.90
2017-08-02T09:59:13.363Z,52.90
2017-08-02T10:01:41.988Z,54.60
2017-08-02T10:04:10.260Z,54.70
2017-08-02T10:06:39.519Z,54.20
2017-08-02T10:09:08.779Z,53.70
2017-08-02T10:11:38.218Z,53.30
2017-08-02T10:14:07.239Z,52.90
2017-08-02T10:16:35.510Z,52.90
2017-08-02T10:19:05.219Z,51.90
2017-08-02T10:21:34.231Z,52.10
2017-08-02T10:24:02.504Z,52.50
2017-08-02T10:26:33.707Z,49.60
2017-08-02T10:29:02.727Z,51.40
2017-08-02T10:31:31.028Z,51.40
2017-08-02T10:33:59.619Z,51.40
2017-08-02T10:36:27.986Z,50.90
2017-08-02T10:38:56.415Z,50.20
2017-08-02T10:41:25.872Z,49.70
2017-08-02T10:43:54.956Z,49.90
2017-08-02T10:46:23.594Z,49.80
2017-08-02T10:48:51.846Z,50.50
2017-08-02T10:51:20.165Z,49.30
2017-08-02T10:53:48.473Z,49.70
2017-08-02T10:56:17.473Z,48.40
2017-08-02T10:58:46.672Z,48.40
2017-08-02T11:01:14.953Z,49.20
2017-08-02T11:03:44.224Z,48.30
2017-08-02T11:06:12.513Z,48.50
2017-08-02T11:08:41.735Z,49.70
2017-08-02T11:11:10.023Z,49.00
2017-08-02T11:13:38.333Z,49.90
2017-08-02T11:16:06.605Z,48.80
2017-08-02T11:18:34.861Z,47.90
2017-08-02T11:21:04.293Z,48.40
2017-08-02T11:23:34.026Z,48.20
2017-08-02T11:26:02.952Z,47.60
2017-08-02T11:28:33.409Z,48.60
2017-08-02T11:31:01.812Z,48.50
2017-08-02T11:33:30.139Z,47.70
2017-08-02T11:35:58.580Z,47.30
2017-08-02T11:38:28.567Z,44.30
2017-08-02T11:40:57.723Z,44.60
2017-08-02T11:43:26.961Z,44.20
2017-08-02T11:45:55.360Z,42.10
2017-08-02T11:48:23.650Z,43.30
2017-08-02T11:50:52.815Z,42.10
2017-08-02T11:53:21.133Z,44.10
2017-08-02T11:55:49.416Z,43.80
2017-08-02T11:58:17.680Z,42.90
2017-08-02T12:00:46.705Z,41.40
2017-08-02T12:03:15.006Z,41.40
2017-08-02T12:05:43.281Z,43.60
2017-08-02T12:08:13.230Z,41.90
2017-08-02T12:10:41.516Z,41.90
2017-08-02T12:13:09.770Z,41.60
2017-08-02T12:15:38.054Z,41.70
2017-08-02T12:18:07.658Z,43.20
2017-08-02T12:20:35.941Z,42.40
2017-08-02T12:23:04.213Z,41.70
2017-08-02T12:25:32.980Z,42.20
2017-08-02T12:28:01.365Z,42.40
2017-08-02T12:30:29.615Z,41.00
2017-08-02T12:32:59.917Z,40.80
2017-08-02T12:35:28.964Z,41.60
2017-08-02T12:37:57.845Z,41.20
2017-08-02T12:40:26.234Z,41.40
2017-08-02T12:42:54.482Z,41.40
2017-08-02T12:45:22.751Z,42.60
2017-08-02T12:47:51.463Z,41.70
2017-08-02T12:50:19.715Z,41.40
2017-08-02T12:52:48.124Z,41.20
2017-08-02T12:55:16.371Z,41.50
2017-08-02T12:57:45.380Z,41.70
2017-08-02T13:00:13.635Z,41.70
2017-08-02T13:02:42.633Z,40.10
2017-08-02T13:05:12.561Z,41.50
2017-08-02T13:07:41.781Z,41.50
2017-08-02T13:10:10.827Z,40.40
2017-08-02T13:12:42.022Z,40.60
2017-08-02T13:15:10.339Z,41.20
2017-08-02T13:17:38.622Z,41.70
2017-08-02T13:20:07.604Z,42.00
2017-08-02T13:22:36.470Z,42.60
2017-08-02T13:25:05.900Z,42.50
2017-08-02T13:27:34.203Z,42.70
2017-08-02T13:30:03.216Z,42.40
2017-08-02T13:32:32.352Z,42.40
2017-08-02T13:35:01.522Z,42.40
2017-08-02T13:37:29.834Z,42.90
2017-08-02T13:39:58.107Z,42.40
2017-08-02T13:42:26.430Z,42.00
2017-08-02T13:44:54.717Z,41.40
2017-08-02T13:47:22.964Z,41.60
2017-08-02T13:49:51.203Z,42.70
2017-08-02T13:52:19.447Z,42.90
2017-08-02T13:54:48.478Z,43.10
2017-08-02T13:57:16.744Z,43.10
2017-08-02T13:59:44.976Z,43.00
2017-08-02T14:02:14.031Z,42.70
2017-08-02T14:04:42.269Z,41.70
2017-08-02T14:07:10.532Z,42.10
2017-08-02T14:09:38.771Z,41.50
2017-08-02T14:12:07.028Z,40.50
2017-08-02T14:14:36.204Z,40.80
2017-08-02T14:17:05.232Z,40.70
2017-08-02T14:19:33.491Z,40.70
2017-08-02T14:22:01.768Z,41.60
2017-08-02T14:24:30.011Z,41.20
2017-08-02T14:26:59.045Z,40.90
2017-08-02T14:29:27.316Z,40.90
2017-08-02T14:31:55.553Z,41.20
2017-08-02T14:34:24.580Z,43.30
2017-08-02T14:36:52.946Z,43.30
2017-08-02T14:39:22.065Z,44.10
2017-08-02T14:41:51.043Z,45.40
2017-08-02T14:44:19.364Z,45.30
2017-08-02T14:46:47.726Z,45.70
2017-08-02T14:49:17.002Z,46.40
2017-08-02T14:51:45.247Z,45.90
2017-08-02T14:54:14.300Z,44.90
2017-08-02T14:56:42.654Z,44.80
2017-08-02T14:59:11.645Z,45.50
2017-08-02T15:01:40.644Z,46.30
2017-08-02T15:04:08.902Z,46.30
2017-08-02T15:06:37.175Z,46.20
2017-08-02T15:09:06.815Z,46.10
2017-08-02T15:11:36.002Z,46.10
2017-08-02T15:14:05.240Z,45.60
2017-08-02T15:16:33.480Z,46.80
2017-08-02T15:19:01.750Z,45.40
2017-08-02T15:21:29.995Z,45.20
2017-08-02T15:23:59.852Z,46.20
2017-08-02T15:26:28.089Z,46.20
2017-08-02T15:28:56.348Z,46.50
2017-08-02T15:31:25.585Z,47.20
2017-08-02T15:33:54.640Z,47.20
2017-08-02T15:36:22.930Z,47.20
2017-08-02T15:38:51.280Z,48.10
2017-08-02T15:41:20.270Z,49.90
2017-08-02T15:43:49.025Z,50.40
2017-08-02T15:46:17.300Z,50.10
2017-08-02T15:48:46.467Z,52.40
2017-08-02T15:51:15.482Z,53.00
2017-08-02T15:53:43.974Z,52.40
2017-08-02T15:56:13.015Z,54.30
2017-08-02T15:58:42.824Z,54.30
2017-08-02T16:01:11.366Z,55.40
2017-08-02T16:03:39.678Z,55.70
2017-08-02T16:06:07.947Z,57.30
2017-08-02T16:08:36.209Z,57.80
2017-08-02T16:11:06.155Z,57.30
2017-08-02T16:13:36.231Z,57.50
2017-08-02T16:16:06.704Z,60.20
2017-08-02T16:18:35.501Z,60.20
2017-08-02T16:21:03.795Z,61.60
2017-08-02T16:23:35.074Z,62.40
2017-08-02T16:26:04.096Z,66.00
2017-08-02T16:28:32.374Z,65.80
2017-08-02T16:31:00.657Z,67.80
2017-08-02T16:33:31.681Z,69.90
2017-08-02T16:36:01.142Z,71.00
2017-08-02T16:38:29.371Z,71.80
2017-08-02T16:40:57.655Z,73.90
2017-08-02T16:43:26.802Z,74.60
2017-08-02T16:45:55.071Z,75.80
2017-08-02T16:48:23.377Z,76.40
2017-08-02T16:50:51.651Z,74.90
2017-08-02T16:53:19.939Z,74.30
2017-08-02T16:55:48.242Z,74.70
2017-08-02T16:58:16.485Z,75.50
2017-08-02T17:00:45.543Z,75.60
2017-08-02T17:03:15.198Z,75.60
2017-08-02T17:05:43.509Z,75.20
2017-08-02T17:08:13.324Z,75.20
2017-08-02T17:10:43.274Z,75.20
2017-08-02T17:13:11.552Z,76.40
2017-08-02T17:15:40.922Z,77.20
2017-08-02T17:18:09.195Z,77.90
2017-08-02T17:20:41.387Z,77.70
2017-08-02T17:23:11.382Z,77.40
2017-08-02T17:25:40.763Z,77.00
2017-08-02T17:28:12.108Z,77.70
2017-08-02T17:30:40.449Z,77.50
2017-08-02T17:33:10.162Z,78.30
2017-08-02T17:35:39.315Z,79.00
2017-08-02T17:38:08.712Z,79.80
2017-08-02T17:40:38.278Z,78.90
2017-08-02T17:43:08.024Z,78.70
2017-08-02T17:45:36.277Z,79.20
2017-08-02T17:48:05.335Z,80.40
2017-08-02T17:50:36.678Z,80.40
2017-08-02T17:53:06.915Z,80.40
2017-08-02T17:55:36.231Z,80.70
2017-08-02T17:58:06.435Z,79.50
2017-08-02T18:00:34.724Z,79.40
2017-08-02T18:03:04.509Z,80.00
2017-08-02T18:05:33.750Z,80.30
2017-08-02T18:08:02.814Z,80.80
2017-08-02T18:10:31.811Z,80.80
2017-08-02T18:13:00.069Z,81.20
2017-08-02T18:15:29.909Z,80.70
2017-08-02T18:17:58.198Z,79.80
2017-08-02T18:20:26.469Z,79.00
2017-08-02T18:22:54.800Z,78.00
2017-08-02T18:25:23.283Z,77.00
2017-08-02T18:27:51.566Z,77.00
2017-08-02T18:30:19.857Z,78.50
2017-08-02T18:32:48.184Z,76.60
2017-08-02T18:35:17.225Z,76.40
2017-08-02T18:37:46.560Z,76.40
2017-08-02T18:40:15.312Z,73.90
2017-08-02T18:42:43.569Z,77.20
2017-08-02T18:45:12.613Z,78.60
2017-08-02T18:47:42.782Z,78.60
2017-08-02T18:50:11.064Z,79.40
2017-08-02T18:52:39.459Z,80.20
2017-08-02T18:55:08.286Z,81.20
2017-08-02T18:57:36.576Z,81.80
2017-08-02T19:00:05.576Z,82.20
2017-08-02T19:02:34.613Z,83.40
2017-08-02T19:05:02.894Z,83.30
2017-08-02T19:07:31.171Z,83.70
2017-08-02T19:09:59.889Z,83.30
2017-08-02T19:12:28.228Z,83.20
2017-08-02T19:14:57.299Z,82.80
2017-08-02T19:17:28.035Z,82.50
2017-08-02T19:19:58.841Z,83.50
2017-08-02T19:22:29.908Z,82.20
2017-08-02T19:25:00.280Z,82.00
2017-08-02T19:27:30.155Z,81.90
2017-08-02T19:30:01.049Z,83.50
2017-08-02T19:32:29.904Z,83.20
2017-08-02T19:34:59.218Z,83.00
2017-08-02T19:37:29.339Z,83.20
2017-08-02T19:39:57.928Z,82.40
2017-08-02T19:42:26.637Z,82.70
2017-08-02T19:44:55.502Z,83.00
2017-08-02T19:47:23.831Z,83.70
2017-08-02T19:49:54.109Z,84.90
2017-08-02T19:52:22.706Z,84.40
2017-08-02T19:54:51.441Z,83.00
2017-08-02T19:57:21.832Z,84.30
2017-08-02T19:59:50.136Z,83.50
2017-08-02T20:02:20.431Z,83.80
2017-08-02T20:04:48.672Z,83.80
2017-08-02T20:07:17.808Z,83.80
2017-08-02T20:09:46.068Z,84.20
2017-08-02T20:12:15.872Z,84.00
2017-08-02T20:14:45.111Z,83.30
2017-08-02T20:17:17.553Z,83.90
2017-08-02T20:19:45.867Z,83.80
2017-08-02T20:22:14.939Z,84.50
2017-08-02T20:24:43.197Z,84.50
2017-08-02T20:27:12.274Z,83.70
2017-08-02T20:29:42.200Z,84.70
2017-08-02T20:32:11.283Z,84.50
2017-08-02T20:34:39.616Z,84.40
2017-08-02T20:37:09.594Z,84.20
2017-08-02T20:39:38.203Z,84.20
2017-08-02T20:42:07.295Z,83.80
2017-08-02T20:44:36.437Z,84.10
2017-08-02T20:47:05.574Z,84.10
2017-08-02T20:49:34.476Z,84.00
2017-08-02T20:52:03.617Z,84.20
2017-08-02T20:54:33.436Z,83.80
2017-08-02T20:57:04.241Z,83.40
2017-08-02T20:59:36.078Z,83.50
2017-08-02T21:02:05.727Z,83.80
2017-08-02T21:04:38.352Z,84.10
2017-08-02T21:07:08.544Z,84.20
2017-08-02T21:09:42.156Z,83.00
2017-08-02T21:12:12.001Z,83.00
2017-08-02T21:14:42.792Z,83.80
2017-08-02T21:17:12.485Z,83.90
2017-08-02T21:19:41.495Z,84.00
2017-08-02T21:22:13.410Z,84.00
2017-08-02T21:24:42.183Z,84.00
2017-08-02T21:27:10.466Z,84.60
2017-08-02T21:29:40.951Z,84.80
2017-08-02T21:32:10.273Z,84.60
2017-08-02T21:34:40.558Z,84.30
2017-08-02T21:37:09.695Z,84.30
2017-08-02T21:39:39.393Z,85.50
2017-08-02T21:42:08.459Z,85.10
2017-08-02T21:44:36.739Z,85.20
2017-08-02T21:47:06.733Z,84.70
2017-08-02T21:49:34.981Z,84.30
2017-08-02T21:52:09.017Z,83.80
2017-08-02T21:54:39.202Z,83.80
2017-08-02T21:57:07.468Z,83.90
2017-08-02T21:59:35.766Z,84.30
2017-08-02T22:02:05.716Z,85.10
2017-08-02T22:04:34.701Z,84.40
2017-08-02T22:07:02.991Z,84.30
2017-08-02T22:09:31.464Z,84.10
2017-08-02T22:12:01.090Z,85.00
2017-08-02T22:14:29.345Z,84.90
2017-08-02T22:16:58.805Z,84.90
2017-08-02T22:19:28.906Z,85.00
2017-08-02T22:21:58.763Z,85.00
2017-08-02T22:24:28.615Z,85.00
2017-08-02T22:26:57.960Z,85.30
2017-08-02T22:29:28.069Z,85.70
2017-08-02T22:31:57.183Z,85.60
2017-08-02T22:34:26.744Z,85.50
2017-08-02T22:36:54.998Z,85.60
2017-08-02T22:39:25.975Z,86.10
2017-08-02T22:41:55.110Z,86.10
2017-08-02T22:44:24.442Z,85.60
2017-08-02T22:46:56.505Z,85.40
2017-08-02T22:49:26.449Z,85.50
2017-08-02T22:51:56.122Z,85.40
2017-08-02T22:54:25.330Z,86.00
2017-08-02T22:56:53.652Z,85.80
2017-08-02T22:59:21.964Z,86.60
2017-08-02T23:01:51.323Z,86.60
2017-08-02T23:04:22.200Z,87.10
2017-08-02T23:06:50.538Z,87.10
2017-08-02T23:09:19.335Z,86.90
2017-08-02T23:11:48.050Z,87.30
2017-08-02T23:14:17.422Z,86.90
2017-08-02T23:16:45.669Z,86.90
2017-08-02T23:19:14.687Z,86.90
2017-08-02T23:21:42.941Z,86.90
2017-08-02T23:24:15.662Z,86.50
2017-08-02T23:26:44.998Z,86.40
2017-08-02T23:29:14.107Z,86.70
2017-08-02T23:31:43.115Z,86.50
2017-08-02T23:34:11.390Z,86.50
2017-08-02T23:36:39.690Z,86.20
2017-08-02T23:39:07.999Z,85.70
2017-08-02T23:41:36.271Z,85.60
2017-08-02T23:44:05.638Z,85.20
2017-08-02T23:46:34.495Z,85.50
2017-08-02T23:49:03.731Z,85.30
2017-08-02T23:51:32.001Z,85.30
2017-08-02T23:54:02.411Z,86.00
2017-08-02T23:56:32.754Z,85.50
2017-08-02T23:59:02.472Z,86.10
